Antonios — SY8410 — position and weather

sailwx.info

Track history (hours):
 
Tides and Currents Weather Stations Pressure Air Temp Water Temp Dewpoint Dewpoint Depression Visibility Wind Speed Wind Dir Waves Ship Positions

Antonios

Last reported at 2017-Jan-20 01:23 UTC. Time now 2017-Jan-20 05:54 UTC.
Position N 37°38' E 023°47'.

Length 57 m; draft 4 m.

Type: Tanker. MMSI: 239191300.

Date/timePositionNaut miles runAvg speedWind from/ knotsBaromVisibWave heightAir tempDewpointWater temp
2017-Jan-20 01:23N 37°38' E 023°47'8 9.4
2017-Jan-20 00:33N 37°43' E 023°40'9 9.2
2017-Jan-19 23:33N 37°49' E 023°31'10 9.6
2017-Jan-19 22:34N 37°52' E 023°20'10 9.6
2017-Jan-19 21:33N 37°54' E 023°08'2 2.2
2017-Jan-19 20:33N 37°55' E 023°05'0 0.0
2017-Jan-19 19:33N 37°55' E 023°05'0 0.0
2017-Jan-19 18:33N 37°55' E 023°05'0 0.0
2017-Jan-19 17:28N 37°55' E 023°05'0 0.0
2017-Jan-19 16:33N 37°55' E 023°05'0 0.0
2017-Jan-19 15:33N 37°55' E 023°05'0 0.0
2017-Jan-19 14:33N 37°55' E 023°05'4 4.3
2017-Jan-19 13:33N 37°54' E 023°10'1010.3
2017-Jan-19 12:34N 37°52' E 023°23'1010.2
2017-Jan-19 11:33N 37°50' E 023°36'9 9.1
2017-Jan-19 10:33N 37°43' E 023°43'10 9.7
2017-Jan-19 09:33N 37°37' E 023°53'1110.0
2017-Jan-19 08:28N 37°31' E 024°05'36 9.2
2017-Jan-19 04:33N 37°22' E 024°49'18 9.3
2017-Jan-19 02:33N 37°17' E 025°11'1010.1
2017-Jan-19 01:33N 37°16' E 025°23'1310.2
2017-Jan-19 00:19N 37°13' E 025°39'810.1
2017-Jan-18 23:33N 37°11' E 025°48'1 0.0
2017-Jan-17 09:33N 37°11' E 025°48'13 9.5
2017-Jan-17 08:14N 37°14' E 025°32'7 9.7
2017-Jan-17 07:33N 37°16' E 025°24'10 9.5
2017-Jan-17 06:33N 37°18' E 025°13'12 9.7
2017-Jan-17 05:19N 37°20' E 024°58'7 9.5
2017-Jan-17 04:33N 37°22' E 024°49'56 9.2
2017-Jan-16 22:32N 37°40' E 023°43'9 9.5
2017-Jan-16 21:33N 37°48' E 023°36'10 9.7
2017-Jan-16 20:33N 37°51' E 023°25'10 9.9
2017-Jan-16 19:33N 37°53' E 023°12'6 2.8
2017-Jan-16 17:27N 37°55' E 023°05'0 0.0
2017-Jan-16 11:33N 37°55' E 023°05'0 0.0
2017-Jan-16 09:31N 37°55' E 023°05'1 0.6
2017-Jan-16 08:33N 37°55' E 023°06'0 0.0
2017-Jan-16 07:33N 37°55' E 023°06'0 0.0
2017-Jan-16 06:33N 37°55' E 023°06'0 0.0
2017-Jan-16 05:33N 37°55' E 023°06'0 0.0
2017-Jan-16 04:33N 37°55' E 023°06'0 0.0
2017-Jan-16 03:33N 37°55' E 023°06'0 0.0
2017-Jan-16 02:33N 37°55' E 023°06'0 0.0
2017-Jan-16 01:33N 37°55' E 023°06'0 0.1
2017-Jan-16 00:33N 37°55' E 023°06'0 0.0
2017-Jan-15 23:33N 37°55' E 023°06'0 0.0
2017-Jan-15 22:33N 37°55' E 023°06'0 0.0
2017-Jan-15 21:33N 37°55' E 023°06'0 0.0
2017-Jan-15 20:33N 37°55' E 023°06'0 0.0
2017-Jan-15 19:33N 37°55' E 023°06'0 0.0
2017-Jan-15 18:33N 37°55' E 023°06'0 0.0
2017-Jan-15 17:33N 37°55' E 023°06'0 0.1
2017-Jan-15 16:33N 37°55' E 023°06'0 0.1
2017-Jan-15 15:33N 37°55' E 023°06'0 0.0
2017-Jan-15 14:32N 37°55' E 023°06'0 0.0
2017-Jan-15 13:33N 37°55' E 023°06'5 4.7
2017-Jan-15 12:34N 37°53' E 023°12'6 6.4
2017-Jan-15 11:33N 37°52' E 023°20'1010.0
2017-Jan-15 10:33N 37°50' E 023°32'9 8.8
2017-Jan-15 09:33N 37°46' E 023°42'9 9.5
2017-Jan-15 08:33N 37°39' E 023°50'9 9.1
2017-Jan-15 07:31N 37°36' E 024°01'52 8.7
2017-Jan-15 01:33N 37°24' E 025°04'7 6.6
2017-Jan-15 00:32N 37°17' E 025°07'8 7.9
2017-Jan-14 23:33N 37°15' E 025°17'8 8.4
2017-Jan-14 22:33N 37°14' E 025°27'10 9.1
2017-Jan-14 21:28N 37°10' E 025°39'  
Track history (hours):
 
Tides and Currents Weather Stations Pressure Air Temp Water Temp Dewpoint Dewpoint Depression Visibility Wind Speed Wind Dir Waves Ship Positions

Antonios

Last reported at 2017-Jan-20 01:23 UTC. Time now 2017-Jan-20 05:54 UTC.
Position N 37°38' E 023°47'.

Length 57 m; draft 4 m.

Type: Tanker. MMSI: 239191300.

Date/timePositionNaut miles runAvg speedWind from/ knotsBaromVisibWave heightAir tempDewpointWater temp
2017-Jan-20 01:23N 37°38' E 023°47'8 9.4
2017-Jan-20 00:33N 37°43' E 023°40'9 9.2
2017-Jan-19 23:33N 37°49' E 023°31'10 9.6
2017-Jan-19 22:34N 37°52' E 023°20'10 9.6
2017-Jan-19 21:33N 37°54' E 023°08'2 2.2
2017-Jan-19 20:33N 37°55' E 023°05'0 0.0
2017-Jan-19 19:33N 37°55' E 023°05'0 0.0
2017-Jan-19 18:33N 37°55' E 023°05'0 0.0
2017-Jan-19 17:28N 37°55' E 023°05'0 0.0
2017-Jan-19 16:33N 37°55' E 023°05'0 0.0
2017-Jan-19 15:33N 37°55' E 023°05'0 0.0
2017-Jan-19 14:33N 37°55' E 023°05'4 4.3
2017-Jan-19 13:33N 37°54' E 023°10'1010.3
2017-Jan-19 12:34N 37°52' E 023°23'1010.2
2017-Jan-19 11:33N 37°50' E 023°36'9 9.1
2017-Jan-19 10:33N 37°43' E 023°43'10 9.7
2017-Jan-19 09:33N 37°37' E 023°53'1110.0
2017-Jan-19 08:28N 37°31' E 024°05'36 9.2
2017-Jan-19 04:33N 37°22' E 024°49'18 9.3
2017-Jan-19 02:33N 37°17' E 025°11'1010.1
2017-Jan-19 01:33N 37°16' E 025°23'1310.2
2017-Jan-19 00:19N 37°13' E 025°39'810.1
2017-Jan-18 23:33N 37°11' E 025°48'1 0.0
2017-Jan-17 09:33N 37°11' E 025°48'13 9.5
2017-Jan-17 08:14N 37°14' E 025°32'7 9.7
2017-Jan-17 07:33N 37°16' E 025°24'10 9.5
2017-Jan-17 06:33N 37°18' E 025°13'12 9.7
2017-Jan-17 05:19N 37°20' E 024°58'7 9.5
2017-Jan-17 04:33N 37°22' E 024°49'56 9.2
2017-Jan-16 22:32N 37°40' E 023°43'9 9.5
2017-Jan-16 21:33N 37°48' E 023°36'10 9.7
2017-Jan-16 20:33N 37°51' E 023°25'10 9.9
2017-Jan-16 19:33N 37°53' E 023°12'6 2.8
2017-Jan-16 17:27N 37°55' E 023°05'0 0.0
2017-Jan-16 11:33N 37°55' E 023°05'0 0.0
2017-Jan-16 09:31N 37°55' E 023°05'1 0.6
2017-Jan-16 08:33N 37°55' E 023°06'0 0.0
2017-Jan-16 07:33N 37°55' E 023°06'0 0.0
2017-Jan-16 06:33N 37°55' E 023°06'0 0.0
2017-Jan-16 05:33N 37°55' E 023°06'0 0.0
2017-Jan-16 04:33N 37°55' E 023°06'0 0.0
2017-Jan-16 03:33N 37°55' E 023°06'0 0.0
2017-Jan-16 02:33N 37°55' E 023°06'0 0.0
2017-Jan-16 01:33N 37°55' E 023°06'0 0.1
2017-Jan-16 00:33N 37°55' E 023°06'0 0.0
2017-Jan-15 23:33N 37°55' E 023°06'0 0.0
2017-Jan-15 22:33N 37°55' E 023°06'0 0.0
2017-Jan-15 21:33N 37°55' E 023°06'0 0.0
2017-Jan-15 20:33N 37°55' E 023°06'0 0.0
2017-Jan-15 19:33N 37°55' E 023°06'0 0.0
2017-Jan-15 18:33N 37°55' E 023°06'0 0.0
2017-Jan-15 17:33N 37°55' E 023°06'0 0.1
2017-Jan-15 16:33N 37°55' E 023°06'0 0.1
2017-Jan-15 15:33N 37°55' E 023°06'0 0.0
2017-Jan-15 14:32N 37°55' E 023°06'0 0.0
2017-Jan-15 13:33N 37°55' E 023°06'5 4.7
2017-Jan-15 12:34N 37°53' E 023°12'6 6.4
2017-Jan-15 11:33N 37°52' E 023°20'1010.0
2017-Jan-15 10:33N 37°50' E 023°32'9 8.8
2017-Jan-15 09:33N 37°46' E 023°42'9 9.5
2017-Jan-15 08:33N 37°39' E 023°50'9 9.1
2017-Jan-15 07:31N 37°36' E 024°01'52 8.7
2017-Jan-15 01:33N 37°24' E 025°04'7 6.6
2017-Jan-15 00:32N 37°17' E 025°07'8 7.9
2017-Jan-14 23:33N 37°15' E 025°17'8 8.4
2017-Jan-14 22:33N 37°14' E 025°27'10 9.1
2017-Jan-14 21:28N 37°10' E 025°39'  

Dump ship's entire track history